Latest Coastal Weather Observations for Horn Island

IDQ60701

Issued at 1:42 am EST Friday 5 March 2021 (issued every 10 minutes, with the page automatically refreshed every 10 minutes)

About coastal observations | Map of coastal stations | Coastal observations for QLD | Marine services | Other Formats
Station Details ID: 027058 Name: HORN ISLAND Lat: -10.58 Lon: 142.29 Height: 4.0 m
Data from the previous 72 hours. | See also: Recent months at Horn Island
Date/Time
EST
Wind Sea
Height
m
Swell Vis
km
Cloud Weather Temp
°C
Press
MSL
hPa
Rain since
9am
mm
Dir  Spd
kts
Gust
kts
Height
m
Period
s
Dir
05/01:30am NW 11 17 - - - - 10 Partly cloudy - 27.9 1007.4 0.2
05/01:00am NW 10 15 - - - - 10 Partly cloudy - 27.9 1007.7 0.2
05/12:30am NW 10 14 - - - - 10 - - 27.8 1008.0 0.2
05/12:00am NW 11 16 - - - - 10 Partly cloudy - 27.8 1008.2 0.2
 
Date/Time
EST
Wind Sea
Height
m
Swell Vis
km
Cloud Weather Temp
°C
Press
MSL
hPa
Rain since
9am
mm
Dir  Spd
kts
Gust
kts
Height
m
Period
s
Dir
04/11:30pm NW 10 15 - - - - 10 - - 27.9 1008.2 0.2
04/11:00pm NW 8 13 - - - - 10 - - 27.8 1008.4 0.2
04/10:30pm NW 6 9 - - - - 10 - - 27.5 1008.4 0.2
04/10:00pm WNW 6 8 - - - - 10 - - 27.5 1008.4 0.2
04/09:30pm WNW 7 10 - - - - 10 - - 27.6 1008.1 0.2
04/09:00pm WNW 8 13 - - - - 10 Mostly cloudy - 27.7 1007.8 0.2
04/08:30pm WNW 8 11 - - - - 10 - - 27.6 1007.7 0.2
04/08:00pm WNW 9 13 - - - - 10 - - 27.6 1007.5 0.2
04/07:30pm WNW 9 13 - - - - 10 - - 27.7 1007.3 0.2
04/07:00pm NW 9 13 - - - - 10 Partly cloudy - 27.8 1007.2 0.2
04/06:30pm NW 9 14 - - - - 10 - - 27.9 1006.8 0.2
04/06:00pm NW 9 14 - - - - 10 - - 28.2 1006.5 0.2
04/05:30pm NW 9 15 - - - - 10 - - 28.5 1006.3 0.2
04/05:00pm NW 10 16 - - - - 10 - - 29.0 1006.1 0.2
04/04:30pm NNW 11 15 - - - - 10 Partly cloudy - 28.9 1005.9 0.2
04/04:00pm NNW 8 11 - - - - 10 Partly cloudy - 29.1 1005.8 0.2
04/03:30pm NNW 9 13 - - - - 10 - - 28.8 1005.8 0.2
04/03:00pm NNW 9 12 - - - - 10 Mostly clear - 28.4 1005.5 0.2
04/02:30pm NNW 9 12 - - - - 10 - - 28.4 1005.8 0.2
04/02:00pm NNW 9 12 - - - - 10 Partly cloudy - 28.5 1006.3 0.2
04/01:30pm NW 6 9 - - - - 10 Partly cloudy - 28.3 1006.6 0.2
04/01:00pm WNW 8 12 - - - - 10 Partly cloudy - 27.7 1007.6 0.2
04/12:30pm WNW 8 13 - - - - 10 Partly cloudy - 27.7 1008.1 0.2
04/12:00pm WNW 9 13 - - - - 10 Cloudy - 28.0 1008.6 0.2
04/11:30am W 8 13 - - - - 10 Partly cloudy - 27.4 1009.2 0.2
04/11:00am WNW 8 13 - - - - 10 Cloudy - 27.2 1009.7 0.2
04/10:30am W 9 14 - - - - 10 Partly cloudy - 26.7 1010.0 0.0
04/10:00am W 9 13 - - - - 10 Partly cloudy - 26.1 1010.3 0.0
04/09:30am WNW 7 11 - - - - 10 Cloudy - 25.7 1010.5 0.0
04/09:00am WNW 9 13 - - - - 10 Cloudy Rain 24.9 1010.5 6.8
04/08:30am WNW 7 10 - - - - 10 Partly cloudy - 24.4 1010.3 6.8
04/08:00am WNW 5 8 - - - - 10 Partly cloudy - 23.9 1010.0 6.8
04/07:30am W 7 10 - - - - 10 Partly cloudy - 23.5 1009.7 6.6
04/07:00am W 6 8 - - - - 10 Cloudy - 23.8 1009.3 6.2
04/06:31am WNW 6 9 - - - - 7 Partly cloudy - 23.7 1008.8 5.8
04/06:30am WNW 6 9 - - - - 7 Partly cloudy - 23.7 1008.8 5.8
04/06:19am WNW 8 11 - - - - 5 Partly cloudy - 23.6 1008.7 5.2
04/06:00am WNW 7 11 - - - - 10 Cloudy Rain 24.0 1008.5 4.2
04/05:30am WNW 6 9 - - - - 10 - - 24.0 1008.2 3.8
04/05:00am WNW 7 11 - - - - 10 - - 23.8 1008.1 3.8
04/04:30am WNW 5 7 - - - - 10 Partly cloudy - 23.6 1007.8 3.6
04/04:00am SSW 3 4 - - - - 10 - - 23.6 1007.4 3.6
04/03:30am SW 2 3 - - - - 10 Partly cloudy - 23.5 1007.3 3.6
04/03:00am W 4 5 - - - - 10 Mostly cloudy Drizzle 23.3 1007.4 3.6
04/02:30am SW 6 9 - - - - 10 Partly cloudy - 23.2 1007.5 3.6
04/02:00am WSW 7 10 - - - - 10 Partly cloudy - 23.1 1007.7 3.4
04/01:30am SW 5 7 - - - - 10 Partly cloudy - 23.3 1007.4 3.0
04/01:00am SSW 5 9 - - - - 10 Partly cloudy - 23.6 1008.0 2.8
04/12:30am W 4 6 - - - - 10 Partly cloudy - 23.6 1008.3 2.8
04/12:00am CALM 0 1 - - - - 10 Cloudy Showers 23.4 1008.3 2.8
 
Date/Time
EST
Wind Sea
Height
m
Swell Vis
km
Cloud Weather Temp
°C
Press
MSL
hPa
Rain since
9am
mm
Dir  Spd
kts
Gust
kts
Height
m
Period
s
Dir
03/11:30pm W 5 6 - - - - 10 Partly cloudy - 23.0 1008.9 2.8
03/11:00pm WSW 4 5 - - - - 10 Cloudy - 22.9 1008.8 2.8
03/10:30pm WSW 6 8 - - - - 10 Partly cloudy - 22.5 1009.3 2.8
03/10:00pm SSE 6 8 - - - - 10 Partly cloudy - 22.4 1008.8 2.8
03/09:30pm SSW 9 13 - - - - 10 Partly cloudy - 22.2 1008.7 2.8
03/09:16pm SSW 12 17 - - - - 10 Partly cloudy - 22.0 1008.5 2.8
03/09:00pm S 14 23 - - - - 10 Cloudy Showers 22.4 1008.3 2.8
03/08:54pm S 13 23 - - - - 7 Partly cloudy - 23.5 1008.3 2.6
03/08:44pm S 10 17 - - - - 5 Partly cloudy - 24.5 1008.1 2.2
03/08:30pm SSW 10 16 - - - - 10 Partly cloudy - 25.2 1007.8 1.8
03/08:29pm SSW 11 16 - - - - 10 Partly cloudy - 25.2 1007.8 1.8
03/08:00pm WNW 11 19 - - - - 10 Partly cloudy - 26.6 1006.9 1.8
03/07:30pm W 7 16 - - - - 10 Partly cloudy - 25.6 1007.0 1.8
03/07:06pm SSW 7 11 - - - - 10 Partly cloudy - 25.1 1006.7 1.8
03/07:00pm SSW 8 11 - - - - 10 Partly cloudy - 25.2 1006.6 1.8
03/06:40pm SSW 10 15 - - - - 10 Partly cloudy - 25.9 1006.0 1.8
03/06:30pm SW 11 16 - - - - 9 Partly cloudy - 26.6 1005.5 1.8
03/06:13pm W 11 16 - - - - 8 Partly cloudy - 26.6 1005.2 1.8
03/06:00pm W 15 27 - - - - 4 Cloudy Rain 26.9 1004.9 1.8
03/05:57pm W 15 27 - - - - 5 Partly cloudy - 27.0 1004.9 1.8
03/05:30pm WNW 12 21 - - - - 10 Partly cloudy - 28.9 1004.7 1.0
03/05:00pm WNW 14 21 - - - - 10 Partly cloudy - 29.0 1004.1 1.0
03/04:33pm WNW 15 25 - - - - 10 Partly cloudy - 28.9 1004.0 1.0
03/04:30pm WNW 14 25 - - - - 10 Partly cloudy - 28.9 1004.0 1.0
03/04:00pm WNW 11 21 - - - - 10 Partly cloudy - 28.9 1004.3 1.0
03/03:30pm WNW 13 20 - - - - 10 Partly cloudy - 28.9 1004.4 1.0
03/03:00pm WNW 15 24 - - - - 10 Cloudy Showers 28.9 1004.5 1.0
03/02:30pm W 13 23 - - - - 10 Partly cloudy - 29.0 1005.0 1.0
03/02:03pm WNW 15 25 - - - - 10 Partly cloudy - 29.3 1005.3 1.0
03/02:00pm WNW 14 25 - - - - 10 Partly cloudy - 29.3 1005.3 1.0
03/01:30pm WNW 15 24 - - - - 10 Partly cloudy - 29.5 1005.8 1.0
03/01:00pm WNW 15 25 - - - - 10 Partly cloudy - 28.8 1006.3 1.0
03/12:59pm WNW 15 25 - - - - 10 Partly cloudy - 28.8 1006.3 1.0
03/12:42pm W 13 23 - - - - 5 Partly cloudy - 27.6 1006.7 0.4
03/12:31pm WNW 15 26 - - - - 10 Partly cloudy - 29.8 1006.7 0.2
03/12:30pm WNW 15 22 - - - - 10 Partly cloudy - 29.9 1006.7 0.2
03/12:00pm WNW 15 25 - - - - 10 Cloudy - 30.0 1007.2 0.2
03/11:30am WNW 15 22 - - - - 10 Partly cloudy - 30.1 1007.5 0.2
03/11:05am WNW 15 26 - - - - 10 Partly cloudy - 29.8 1007.6 0.2
03/11:00am WNW 13 21 - - - - 10 Partly cloudy - 29.7 1007.6 0.2
03/10:30am WNW 14 22 - - - - 10 Partly cloudy - 29.8 1007.9 0.2
03/10:00am WNW 11 18 - - - - 10 Partly cloudy - 29.7 1008.3 0.2
03/09:30am WNW 13 19 - - - - 10 Partly cloudy - 29.4 1008.4 0.0
03/09:00am WNW 12 22 - - - - 10 Cloudy - 29.0 1008.6 23.8
03/08:30am W 11 19 - - - - 10 Partly cloudy - 28.9 1008.3 23.8
03/08:00am WNW 11 20 - - - - 10 Partly cloudy - 28.4 1008.0 23.8
03/07:30am WNW 12 19 - - - - 10 Partly cloudy - 28.3 1008.0 23.8
03/07:00am WNW 11 19 - - - - 10 Partly cloudy - 28.1 1007.5 23.8
03/06:30am WNW 10 17 - - - - 10 Partly cloudy - 27.9 1007.2 23.8
03/06:00am W 12 18 - - - - 10 Cloudy - 28.0 1007.0 23.8
03/05:30am WNW 12 22 - - - - 10 Partly cloudy - 27.9 1006.8 23.8
03/05:00am W 11 18 - - - - 10 Partly cloudy - 27.8 1006.6 23.8
03/04:36am WNW 9 15 - - - - 10 Partly cloudy - 27.4 1006.3 23.8
03/04:30am WNW 9 15 - - - - 10 Partly cloudy - 27.3 1006.4 23.8
03/04:26am WNW 9 15 - - - - 10 Partly cloudy - 27.3 1006.3 23.8
03/04:00am WNW 11 18 - - - - 9 Partly cloudy - 27.6 1006.3 23.4
03/03:30am WNW 10 18 - - - - 10 Partly cloudy - 27.4 1006.3 23.4
03/03:00am WNW 10 16 - - - - 10 Cloudy Rain 27.2 1006.5 23.4
03/02:54am WNW 12 19 - - - - 10 Partly cloudy - 27.2 1006.6 23.4
03/02:30am WNW 14 23 - - - - 3 Partly cloudy - 27.1 1006.8 19.0
03/02:28am WNW 14 23 - - - - 5 Partly cloudy - 27.3 1006.7 17.4
03/02:00am WNW 10 15 - - - - 6 Partly cloudy - 27.2 1006.7 16.0
03/01:30am WNW 13 21 - - - - 10 Partly cloudy - 27.5 1007.0 15.6
03/01:00am WNW 12 18 - - - - 8 Partly cloudy - 27.8 1007.6 15.2
03/12:30am WNW 10 16 - - - - 10 Partly cloudy - 28.0 1007.8 15.0
03/12:00am WNW 10 18 - - - - 10 Cloudy - 27.9 1007.5 15.0
 
Date/Time
EST
Wind Sea
Height
m
Swell Vis
km
Cloud Weather Temp
°C
Press
MSL
hPa
Rain since
9am
mm
Dir  Spd
kts
Gust
kts
Height
m
Period
s
Dir
02/11:30pm WNW 10 16 - - - - 10 Partly cloudy - 27.7 1007.7 15.0
02/11:00pm WNW 9 18 - - - - 10 Partly cloudy - 27.4 1007.6 15.0
02/10:34pm WNW 7 15 - - - - 7 Partly cloudy - 26.4 1007.6 15.0
02/10:30pm WNW 6 9 - - - - 7 Partly cloudy - 25.3 1007.5 15.0
02/10:00pm SSW 7 11 - - - - 2 Partly cloudy - 23.7 1007.7 10.2
02/09:41pm WSW 7 10 - - - - 5 Partly cloudy - 23.2 1007.8 2.2
02/09:30pm SSE 15 27 - - - - 7 Partly cloudy - 23.1 1007.9 1.2
02/09:24pm S 16 27 - - - - 9 Partly cloudy - 23.5 1007.9 0.2
02/09:13pm S 15 29 - - - - 10 Partly cloudy - 24.0 1007.8 0.2
02/09:00pm S 10 18 - - - - 10 Mostly cloudy - 25.5 1008.2 0.2
02/08:30pm S 7 13 - - - - 10 Cloudy - 25.8 1007.5 0.2
02/08:14pm SSE 5 7 - - - - 10 Cloudy - 25.5 1007.3 0.2
02/08:00pm ESE 5 9 - - - - 10 Cloudy - 25.3 1007.0 0.2
02/07:30pm SW 9 19 - - - - 10 Partly cloudy - 25.8 1007.1 0.2
02/07:00pm W 11 18 - - - - 10 Partly cloudy - 28.8 1006.9 0.2
02/06:30pm W 11 17 - - - - 10 Partly cloudy - 28.9 1006.3 0.2
02/06:00pm W 12 19 - - - - 10 Cloudy - 28.9 1005.9 0.2
02/05:30pm W 11 22 - - - - 10 Partly cloudy - 28.9 1005.5 0.2
02/05:00pm WNW 13 23 - - - - 10 Partly cloudy - 29.0 1005.3 0.2
02/04:30pm W 11 19 - - - - 10 Partly cloudy - 29.0 1005.5 0.2
02/04:00pm W 13 19 - - - - 10 Partly cloudy - 29.3 1005.6 0.2
02/03:30pm W 13 23 - - - - 10 Partly cloudy - 29.6 1005.8 0.2
02/03:00pm W 14 24 - - - - 10 Mostly cloudy - 29.8 1005.8 0.2
02/02:30pm W 13 24 - - - - 10 Cloudy - 30.3 1005.9 0.2
02/02:00pm WNW 16 26 - - - - 10 Partly cloudy - 30.6 1006.0 0.2
02/01:46pm WNW 15 25 - - - - 10 Partly cloudy - 30.5 1006.0 0.2
02/01:30pm WNW 15 23 - - - - 10 Partly cloudy - 30.4 1005.9 0.2
02/01:00pm W 14 21 - - - - 10 Partly cloudy - 30.3 1006.4 0.2
02/12:43pm W 15 26 - - - - 10 Partly cloudy - 30.2 1006.7 0.2
02/12:30pm W 14 23 - - - - 10 Partly cloudy - 30.0 1006.9 0.2
02/12:00pm WNW 14 24 - - - - 10 Cloudy - 30.4 1007.4 0.2
02/11:30am WNW 15 25 - - - - 10 Partly cloudy - 29.9 1007.8 0.2
02/11:28am WNW 15 25 - - - - 10 Partly cloudy - 29.8 1007.8 0.2
02/11:00am W 14 23 - - - - 10 Cloudy - 29.6 1007.8 0.2
02/10:30am WNW 13 21 - - - - 10 Cloudy - 29.9 1007.9 0.2
02/10:00am WNW 14 22 - - - - 10 Partly cloudy - 29.9 1008.1 0.0
02/09:30am WNW 11 19 - - - - 10 Partly cloudy - 29.1 1008.1 0.0
02/09:00am WNW 12 18 - - - - 10 Cloudy - 28.9 1008.5 140.2
02/08:30am WNW 9 15 - - - - 10 Partly cloudy - 28.8 1008.2 140.2
02/08:00am WNW 10 16 - - - - 10 Partly cloudy - 28.5 1008.1 140.2
02/07:30am WNW 10 16 - - - - 10 Partly cloudy - 28.3 1008.0 140.2
02/07:00am WNW 11 16 - - - - 10 Partly cloudy - 28.2 1007.7 140.2
02/06:30am WNW 10 18 - - - - 10 Partly cloudy - 28.2 1007.5 140.2
02/06:00am WNW 10 18 - - - - 10 Cloudy - 28.2 1007.3 140.2
02/05:30am WNW 11 18 - - - - 10 Partly cloudy - 28.2 1006.7 140.2
02/05:00am WNW 13 20 - - - - 10 Partly cloudy - 28.2 1006.2 140.2
02/04:30am WNW 10 19 - - - - 10 Partly cloudy - 28.1 1006.0 140.2
02/04:00am WNW 10 16 - - - - 10 Partly cloudy - 28.1 1006.1 140.2
02/03:30am WNW 10 18 - - - - 10 Partly cloudy - 28.0 1006.0 140.2
02/03:00am WNW 11 19 - - - - 10 Partly cloudy - 28.1 1005.9 140.2
02/02:30am WNW 11 17 - - - - 10 Partly cloudy - 28.2 1006.3 140.2
02/02:15am WNW 11 16 - - - - 10 Partly cloudy - 28.1 1006.4 140.2
02/02:02am WNW 8 13 - - - - 10 Partly cloudy - 28.1 1006.7 140.2
02/02:00am WNW 8 12 - - - - 10 Partly cloudy - 28.2 1006.7 140.2

Other formats

Comma delimited format used in spreadsheet applications
http://www.bom.gov.au/fwo/IDQ60701/IDQ60701.94174.axf

JavaScript Object Notation format (JSON) in row-major order
http://www.bom.gov.au/fwo/IDQ60701/IDQ60701.94174.json

Data quality

Most of these data are generated automatically and are frequently updated. Quality checks on data are not normally performed. It is possible for incorrect values to appear. Refer to information at About Latest Weather Observations and please check the disclaimer before using these data.